Time;durP1;ratioP1;P1;durP2;ratioP2;P2;SDS_P1;SDS_P2;PMS_P1;PMS_P2;Temp;Humidity;BMP_temperature;BMP_pressure;BME280_temperature;BME280_humidity;BME280_pressure;Samples;Min_cycle;Max_cycle;Signal;HPM_P1;HPM_P2
2021/12/16 00:08:33;;;;;;;6.78;5.78;;;4.10;76.30;;;;;;5077515;28;20023;-58
2021/12/16 00:35:34;;;;;;;5.47;4.80;;;4.10;76.30;;;;;;5076272;28;20024;-56
2021/12/16 00:37:59;;;;;;;6.65;5.82;;;4.10;76.20;;;;;;5089134;28;20452;-58
2021/12/16 00:40:25;;;;;;;7.97;6.07;;;4.10;76.20;;;;;;5076948;28;20049;-58
2021/12/16 00:42:56;;;;;;;7.25;5.75;;;4.10;76.20;;;;;;5076427;28;20036;-59
2021/12/16 00:47:59;;;;;;;6.82;5.50;;;4.00;76.90;;;;;;5076532;28;20028;-58
2021/12/16 00:55:49;;;;;;;7.75;6.55;;;3.90;76.30;;;;;;5076461;28;20032;-58
2021/12/16 00:58:19;;;;;;;6.22;5.32;;;3.90;76.40;;;;;;5076197;28;20025;-58
2021/12/16 01:00:54;;;;;;;6.30;5.53;;;3.90;76.60;;;;;;5076565;28;20081;-58
2021/12/16 01:03:42;;;;;;;8.23;6.18;;;3.90;76.50;;;;;;5088635;28;20031;-58
2021/12/16 01:08:52;;;;;;;5.90;4.88;;;3.90;76.70;;;;;;5078092;28;20020;-57
2021/12/16 01:39:39;;;;;;;5.22;4.45;;;3.90;76.90;;;;;;5076099;28;20078;-58
2021/12/16 01:55:13;;;;;;;6.07;4.82;;;3.90;77.20;;;;;;5079168;28;20093;-54
2021/12/16 01:57:51;;;;;;;6.05;4.60;;;3.90;77.20;;;;;;5082825;28;20024;-57
2021/12/16 02:00:32;;;;;;;4.65;4.03;;;3.90;77.70;;;;;;5080553;28;20024;-57
2021/12/16 02:03:02;;;;;;;4.43;4.00;;;3.90;77.00;;;;;;5084390;28;20408;-58
2021/12/16 02:06:08;;;;;;;5.57;4.75;;;3.90;76.90;;;;;;5078117;28;20024;-57
2021/12/16 02:08:27;;;;;;;5.38;4.50;;;3.90;77.10;;;;;;5080963;28;20036;-58
2021/12/16 02:11:08;;;;;;;5.20;4.32;;;3.90;77.40;;;;;;5075337;28;20078;-59
2021/12/16 02:13:49;;;;;;;5.10;4.60;;;3.90;77.40;;;;;;5075050;28;20020;-55
2021/12/16 02:32:31;;;;;;;5.05;4.30;;;3.90;77.90;;;;;;5091660;28;20111;-58
2021/12/16 02:37:30;;;;;;;5.28;4.30;;;3.90;77.80;;;;;;5081764;28;20039;-58
2021/12/16 02:39:55;;;;;;;3.92;3.53;;;3.90;78.00;;;;;;5074334;28;20040;-56
2021/12/16 02:42:33;;;;;;;5.10;4.35;;;3.90;78.00;;;;;;5074352;28;20028;-56
2021/12/16 02:50:16;;;;;;;4.60;4.10;;;3.80;78.40;;;;;;5074524;28;19912;-57
2021/12/16 02:52:42;;;;;;;5.00;4.00;;;3.90;78.20;;;;;;5074329;28;20024;-58
2021/12/16 02:55:10;;;;;;;3.55;3.25;;;3.90;78.20;;;;;;5074092;28;20036;-59
2021/12/16 02:57:45;;;;;;;4.55;3.90;;;3.90;78.20;;;;;;5074398;28;20047;-57
2021/12/16 03:00:14;;;;;;;3.85;3.45;;;3.90;78.30;;;;;;5074286;28;20451;-58
2021/12/16 03:02:43;;;;;;;4.07;3.67;;;3.80;78.30;;;;;;5082290;28;20017;-58
2021/12/16 03:05:10;;;;;;;6.13;4.40;;;3.90;78.40;;;;;;5079166;28;20024;-58
2021/12/16 03:07:36;;;;;;;5.55;4.22;;;3.80;78.40;;;;;;5080144;28;20013;-58
2021/12/16 03:12:57;;;;;;;4.97;4.22;;;3.80;78.60;;;;;;5084125;28;20447;-59
2021/12/16 03:20:55;;;;;;;4.80;4.18;;;3.80;78.90;;;;;;5073957;28;20045;-57
2021/12/16 03:26:23;;;;;;;4.88;3.70;;;3.80;79.00;;;;;;5074472;28;20031;-59
2021/12/16 03:34:15;;;;;;;4.72;3.92;;;3.80;78.80;;;;;;5073971;28;20603;-58
2021/12/16 03:37:15;;;;;;;3.70;3.25;;;3.80;78.90;;;;;;5078702;28;20032;-58
2021/12/16 03:39:49;;;;;;;3.35;3.00;;;3.80;78.80;;;;;;5095931;28;20032;-58
2021/12/16 03:42:24;;;;;;;3.20;2.90;;;3.80;78.80;;;;;;5098281;28;20041;-56
2021/12/16 03:44:53;;;;;;;2.83;2.55;;;3.80;78.70;;;;;;5091680;28;20112;-58
2021/12/16 03:47:24;;;;;;;2.60;2.40;;;3.80;78.60;;;;;;5077225;28;20025;-58
2021/12/16 03:49:50;;;;;;;2.17;2.08;;;3.80;78.40;;;;;;5079999;28;20052;-56
2021/12/16 03:52:16;;;;;;;2.38;2.17;;;3.80;78.40;;;;;;5077767;28;20055;-58
2021/12/16 03:54:49;;;;;;;2.33;2.13;;;3.80;78.30;;;;;;5079662;28;20097;-57
2021/12/16 03:57:18;;;;;;;2.15;2.05;;;3.80;78.20;;;;;;5085254;28;20066;-55
2021/12/16 03:59:44;;;;;;;2.10;1.98;;;3.80;78.20;;;;;;5077344;28;20143;-57
2021/12/16 04:02:16;;;;;;;2.30;2.20;;;3.80;78.00;;;;;;5077089;28;20029;-57
2021/12/16 04:04:43;;;;;;;2.50;2.30;;;3.80;78.00;;;;;;5085295;28;20112;-59
2021/12/16 04:07:09;;;;;;;2.28;2.10;;;3.80;78.00;;;;;;5076749;28;20021;-59
2021/12/16 04:09:35;;;;;;;2.92;2.60;;;3.90;77.90;;;;;;5077049;28;20020;-58
2021/12/16 04:12:09;;;;;;;2.60;2.40;;;3.90;78.10;;;;;;5078459;28;20074;-58
2021/12/16 04:14:37;;;;;;;2.40;2.22;;;3.90;78.20;;;;;;5079863;28;20111;-57
2021/12/16 04:17:05;;;;;;;2.55;2.40;;;4.00;78.30;;;;;;5076967;28;20060;-58
2021/12/16 04:19:33;;;;;;;3.20;2.42;;;4.00;78.40;;;;;;5077118;28;20495;-59
2021/12/16 04:22:03;;;;;;;2.20;2.10;;;4.10;78.30;;;;;;5078563;28;20040;-57
2021/12/16 04:24:29;;;;;;;2.25;2.10;;;4.10;78.20;;;;;;5092471;28;20041;-58
2021/12/16 04:26:56;;;;;;;2.45;2.25;;;4.10;78.10;;;;;;5097355;28;20046;-58
2021/12/16 04:29:23;;;;;;;2.78;2.50;;;4.10;78.00;;;;;;5081471;28;20112;-59
2021/12/16 04:31:52;;;;;;;2.25;2.15;;;4.10;78.00;;;;;;5076607;28;20051;-56
2021/12/16 04:34:18;;;;;;;2.40;2.20;;;4.10;77.90;;;;;;5076809;28;20116;-57
2021/12/16 04:36:43;;;;;;;2.65;2.42;;;4.20;77.90;;;;;;5081312;28;20519;-58
2021/12/16 04:39:16;;;;;;;3.42;2.50;;;4.20;77.80;;;;;;5076659;28;20104;-57
2021/12/16 04:41:42;;;;;;;2.75;2.25;;;4.30;77.80;;;;;;5076741;28;20066;-59
2021/12/16 04:44:11;;;;;;;2.38;2.17;;;4.30;77.80;;;;;;5077142;28;20076;-57
2021/12/16 04:46:38;;;;;;;2.75;2.53;;;4.30;77.60;;;;;;5076422;28;20430;-58
2021/12/16 04:49:06;;;;;;;3.42;2.35;;;4.40;77.60;;;;;;5081482;28;20019;-59
2021/12/16 04:51:36;;;;;;;2.50;2.30;;;4.40;77.50;;;;;;5083080;28;20025;-58
2021/12/16 04:54:04;;;;;;;3.03;2.72;;;4.30;77.20;;;;;;5084066;28;20400;-58
2021/12/16 04:56:30;;;;;;;2.78;2.38;;;4.40;77.20;;;;;;5087143;28;20039;-58
2021/12/16 04:58:57;;;;;;;2.50;2.30;;;4.40;77.20;;;;;;5078118;28;20031;-58
2021/12/16 05:01:23;;;;;;;2.63;2.42;;;4.40;77.80;;;;;;5077851;28;20349;-59
2021/12/16 05:03:51;;;;;;;2.90;2.70;;;4.40;77.10;;;;;;5076806;28;20025;-58
2021/12/16 05:06:17;;;;;;;3.85;3.10;;;4.40;77.00;;;;;;5076805;28;20042;-59
2021/12/16 05:08:43;;;;;;;3.58;2.80;;;4.40;76.80;;;;;;5077404;28;20059;-58
2021/12/16 05:11:12;;;;;;;3.00;2.70;;;4.40;76.80;;;;;;5092372;28;20064;-58
2021/12/16 05:13:39;;;;;;;3.20;2.90;;;4.40;76.70;;;;;;5079764;28;20036;-58
2021/12/16 05:16:06;;;;;;;3.08;2.78;;;4.50;76.70;;;;;;5093012;28;20042;-58
2021/12/16 05:18:36;;;;;;;3.28;2.80;;;4.50;76.70;;;;;;5091629;28;20046;-55
2021/12/16 05:21:37;;;;;;;3.08;2.72;;;4.50;76.60;;;;;;5096090;28;20487;-58
2021/12/16 05:26:47;;;;;;;3.40;3.03;;;4.60;76.50;;;;;;5085439;28;20035;-58
2021/12/16 05:29:13;;;;;;;3.20;2.90;;;4.60;76.50;;;;;;5094899;28;20024;-59
2021/12/16 05:31:39;;;;;;;3.42;2.88;;;4.60;76.40;;;;;;5084034;28;20043;-59
2021/12/16 05:34:07;;;;;;;3.20;2.90;;;4.60;76.30;;;;;;5075702;28;20036;-59
2021/12/16 05:36:33;;;;;;;2.92;2.50;;;4.60;76.30;;;;;;5082573;28;20497;-58
2021/12/16 05:38:59;;;;;;;3.00;2.70;;;4.60;76.50;;;;;;5081983;28;20039;-58
2021/12/16 05:41:26;;;;;;;3.45;2.97;;;4.70;76.40;;;;;;5084923;28;20028;-56
2021/12/16 05:43:53;;;;;;;4.00;3.25;;;4.60;76.40;;;;;;5075211;28;20108;-59
2021/12/16 05:46:21;;;;;;;4.13;3.35;;;4.70;76.40;;;;;;5074458;28;20036;-57
2021/12/16 05:48:48;;;;;;;4.82;3.90;;;4.70;76.40;;;;;;5090583;28;20027;-58
2021/12/16 05:51:24;;;;;;;5.38;4.28;;;4.60;76.30;;;;;;5077820;28;20017;-58
2021/12/16 05:53:51;;;;;;;5.88;3.65;;;4.70;76.50;;;;;;5082460;28;20443;-58
2021/12/16 05:56:17;;;;;;;6.53;4.40;;;4.60;76.30;;;;;;5083558;28;20067;-57
2021/12/16 05:58:44;;;;;;;7.97;4.90;;;4.70;76.40;;;;;;5085603;28;20096;-57
2021/12/16 06:01:15;;;;;;;8.27;5.43;;;4.70;76.40;;;;;;5089208;28;20120;-58
2021/12/16 06:03:42;;;;;;;7.20;5.40;;;4.70;76.40;;;;;;5076790;28;20024;-58
2021/12/16 06:06:09;;;;;;;7.57;5.22;;;4.70;76.40;;;;;;5079521;28;20050;-59
2021/12/16 06:08:36;;;;;;;7.95;5.70;;;4.70;76.50;;;;;;5080578;28;20028;-57
2021/12/16 06:13:41;;;;;;;10.73;4.68;;;4.70;76.40;;;;;;5086014;28;20027;-59
2021/12/16 06:29:35;;;;;;;8.25;5.55;;;5.00;75.90;;;;;;5084983;28;20039;-58
2021/12/16 06:32:02;;;;;;;7.63;5.80;;;5.00;76.00;;;;;;5089819;28;20055;-58
2021/12/16 06:34:28;;;;;;;7.90;5.50;;;5.00;75.90;;;;;;5080151;28;20040;-58
2021/12/16 06:36:53;;;;;;;10.00;6.85;;;5.00;75.80;;;;;;5074602;28;20028;-58
2021/12/16 06:39:19;;;;;;;10.85;6.95;;;5.00;75.70;;;;;;5081727;28;20046;-58
2021/12/16 06:41:45;;;;;;;12.30;7.45;;;5.00;75.70;;;;;;5075006;28;20039;-59
2021/12/16 06:44:35;;;;;;;12.93;8.50;;;5.00;75.80;;;;;;5073597;28;20031;-56
2021/12/16 06:47:06;;;;;;;12.05;8.65;;;5.00;75.70;;;;;;5077693;28;20029;-57
2021/12/16 06:49:33;;;;;;;11.98;8.77;;;5.10;75.80;;;;;;5077948;28;20463;-57
2021/12/16 06:52:03;;;;;;;10.35;7.97;;;5.10;75.90;;;;;;5078233;28;20440;-57
2021/12/16 06:54:39;;;;;;;11.18;8.50;;;5.10;75.90;;;;;;5078128;28;20472;-56
2021/12/16 06:59:47;;;;;;;9.70;7.65;;;5.20;75.90;;;;;;5074047;28;20081;-57
2021/12/16 07:04:57;;;;;;;12.20;7.43;;;5.20;75.70;;;;;;5072899;28;20501;-56
2021/12/16 07:07:22;;;;;;;10.75;7.43;;;5.20;75.80;;;;;;5073654;28;20024;-56
2021/12/16 07:09:48;;;;;;;9.55;6.78;;;5.30;75.50;;;;;;5074382;28;20024;-55
2021/12/16 07:12:14;;;;;;;10.55;7.53;;;5.30;75.30;;;;;;5073680;28;20107;-56
2021/12/16 07:14:40;;;;;;;10.23;7.70;;;5.30;75.20;;;;;;5074886;28;20103;-56
2021/12/16 07:17:08;;;;;;;11.07;7.30;;;5.30;75.00;;;;;;5073114;28;20047;-57
2021/12/16 07:19:35;;;;;;;10.40;8.10;;;5.40;75.20;;;;;;5071623;28;20048;-57
2021/12/16 07:22:01;;;;;;;13.70;9.52;;;5.40;75.20;;;;;;5074490;28;20050;-57
2021/12/16 07:24:26;;;;;;;11.98;9.75;;;5.40;75.20;;;;;;5071686;28;20027;-56
2021/12/16 07:26:52;;;;;;;15.65;9.57;;;5.40;75.20;;;;;;5072558;28;20055;-57
2021/12/16 07:29:18;;;;;;;13.88;9.32;;;5.40;75.20;;;;;;5068550;28;20033;-57
2021/12/16 07:31:43;;;;;;;15.60;10.32;;;5.40;75.20;;;;;;5070785;28;20040;-58
2021/12/16 07:34:11;;;;;;;14.07;10.32;;;5.50;75.20;;;;;;5066923;28;20764;-58
2021/12/16 07:36:40;;;;;;;15.80;11.30;;;5.50;75.20;;;;;;5064966;28;20089;-59
2021/12/16 07:39:09;;;;;;;17.67;11.50;;;5.50;75.20;;;;;;5067294;28;20041;-59
2021/12/16 07:41:38;;;;;;;17.85;11.90;;;5.50;75.20;;;;;;5068235;28;20041;-57
2021/12/16 07:44:12;;;;;;;20.65;12.20;;;5.50;75.20;;;;;;5071828;28;20407;-58
2021/12/16 07:46:47;;;;;;;21.08;12.65;;;5.50;75.30;;;;;;5073804;28;20024;-59
2021/12/16 07:49:18;;;;;;;21.35;13.50;;;5.50;75.30;;;;;;5067224;28;20024;-58
2021/12/16 07:51:45;;;;;;;20.58;13.10;;;5.50;75.30;;;;;;5072459;28;22610;-57
2021/12/16 07:54:13;;;;;;;19.80;13.00;;;5.50;75.30;;;;;;5087954;28;20029;-57
2021/12/16 07:56:39;;;;;;;19.92;13.00;;;5.60;75.20;;;;;;5075293;28;20048;-59
2021/12/16 07:59:07;;;;;;;21.70;14.20;;;5.60;75.20;;;;;;5073243;28;20038;-58
2021/12/16 08:01:39;;;;;;;24.23;16.30;;;5.60;75.10;;;;;;5066549;28;20032;-59
2021/12/16 08:04:05;;;;;;;;;;;5.60;75.20;;;;;;5064729;28;20040;-56
2021/12/16 08:06:31;;;;;;;22.48;17.13;;;5.50;75.10;;;;;;5055142;28;20414;-56
2021/12/16 08:09:01;;;;;;;22.08;15.90;;;5.60;75.40;;;;;;5060892;28;20025;-58
2021/12/16 08:11:29;;;;;;;24.98;16.63;;;5.60;75.30;;;;;;5061367;28;20029;-57
2021/12/16 08:13:55;;;;;;;14.90;11.35;;;5.60;75.40;;;;;;5066363;28;20131;-57
2021/12/16 08:16:22;;;;;;;15.90;11.18;;;5.70;75.10;;;;;;5070248;28;20040;-57
2021/12/16 08:18:52;;;;;;;15.95;11.52;;;5.70;75.10;;;;;;5060652;28;20042;-56
2021/12/16 08:21:19;;;;;;;15.00;11.60;;;5.70;75.00;;;;;;5061784;28;20425;-59
2021/12/16 08:23:45;;;;;;;14.05;10.00;;;5.80;75.00;;;;;;5067925;28;20068;-57
2021/12/16 08:26:12;;;;;;;14.85;10.68;;;5.80;74.90;;;;;;5072961;28;20105;-59
2021/12/16 08:28:38;;;;;;;18.80;11.82;;;5.80;74.90;;;;;;5065090;28;20032;-58
2021/12/16 08:31:06;;;;;;;16.45;10.77;;;5.90;74.80;;;;;;5059748;28;20571;-56
2021/12/16 08:33:33;;;;;;;18.45;11.48;;;5.90;74.80;;;;;;5067764;28;20028;-56
2021/12/16 08:35:59;;;;;;;17.92;11.63;;;6.00;74.80;;;;;;5069763;28;20032;-57
2021/12/16 08:38:26;;;;;;;16.98;11.77;;;6.00;74.70;;;;;;5064515;28;20031;-57
2021/12/16 08:40:57;;;;;;;16.27;12.20;;;6.00;74.60;;;;;;5072138;28;20020;-59
2021/12/16 08:43:24;;;;;;;18.83;12.82;;;6.10;74.50;;;;;;5059215;28;20040;-58
2021/12/16 08:45:50;;;;;;;17.08;13.45;;;6.10;74.40;;;;;;5062488;28;20034;-58
2021/12/16 08:48:16;;;;;;;15.73;12.50;;;6.10;74.50;;;;;;5070557;28;20422;-56
2021/12/16 08:50:46;;;;;;;20.83;15.18;;;6.10;74.40;;;;;;5067817;28;20043;-59
2021/12/16 08:53:12;;;;;;;19.67;14.40;;;6.10;74.40;;;;;;5065626;28;20032;-59
2021/12/16 08:55:41;;;;;;;22.75;15.38;;;6.10;74.60;;;;;;5068485;28;21039;-57
2021/12/16 08:58:07;;;;;;;22.23;14.77;;;6.10;74.60;;;;;;5066631;28;20028;-58
2021/12/16 09:00:41;;;;;;;22.98;15.25;;;6.10;74.40;;;;;;5068156;28;20517;-58
2021/12/16 09:03:07;;;;;;;18.13;13.30;;;6.20;74.30;;;;;;5064513;28;20028;-60
2021/12/16 09:05:33;;;;;;;22.92;15.00;;;6.20;74.40;;;;;;5070981;28;20047;-58
2021/12/16 09:07:59;;;;;;;21.20;14.23;;;6.20;74.20;;;;;;5068215;28;20384;-59
2021/12/16 09:10:30;;;;;;;21.40;14.68;;;6.20;74.20;;;;;;5062173;28;20484;-59
2021/12/16 09:13:04;;;;;;;22.25;13.77;;;6.30;74.90;;;;;;5066505;28;20031;-60
2021/12/16 09:15:44;;;;;;;22.45;13.75;;;6.30;74.10;;;;;;5060175;28;20078;-60
2021/12/16 09:18:13;;;;;;;18.73;14.68;;;6.30;74.00;;;;;;5060066;28;20048;-59
2021/12/16 09:20:39;;;;;;;21.52;14.73;;;6.30;74.20;;;;;;5066660;28;20055;-59
2021/12/16 09:23:07;;;;;;;21.02;13.93;;;6.20;74.20;;;;;;5061118;28;20681;-59
2021/12/16 09:25:35;;;;;;;19.95;13.68;;;6.20;74.10;;;;;;5062041;28;20048;-60
2021/12/16 09:28:01;;;;;;;23.00;14.68;;;6.20;74.20;;;;;;5063807;28;21906;-59
2021/12/16 09:30:29;;;;;;;17.60;13.02;;;6.20;74.50;;;;;;5061598;28;20036;-59
2021/12/16 09:33:00;;;;;;;18.73;13.18;;;6.20;74.10;;;;;;5069431;28;20146;-58
2021/12/16 09:35:33;;;;;;;19.73;13.23;;;6.20;74.20;;;;;;5065958;28;20032;-59
2021/12/16 09:38:00;;;;;;;18.42;12.73;;;6.20;74.40;;;;;;5065562;28;20066;-60
2021/12/16 09:40:29;;;;;;;17.52;12.95;;;6.10;74.50;;;;;;5062790;28;20031;-59
2021/12/16 09:42:57;;;;;;;15.70;11.63;;;6.20;74.50;;;;;;5066771;28;20034;-58
2021/12/16 09:45:24;;;;;;;18.20;12.73;;;6.20;74.30;;;;;;5063652;28;20047;-60
2021/12/16 09:47:51;;;;;;;17.90;12.25;;;6.20;74.30;;;;;;5067329;28;20531;-58
2021/12/16 09:50:24;;;;;;;19.20;13.88;;;6.10;74.30;;;;;;5066538;28;20035;-59
2021/12/16 09:52:50;;;;;;;20.40;12.73;;;6.10;74.30;;;;;;5056901;28;20466;-58
2021/12/16 09:55:16;;;;;;;17.50;11.73;;;6.10;74.40;;;;;;5063678;28;20037;-60
2021/12/16 09:57:42;;;;;;;14.05;9.60;;;6.10;74.40;;;;;;5063135;28;20087;-59
2021/12/16 10:00:10;;;;;;;18.10;11.30;;;6.10;74.40;;;;;;5057855;28;20072;-58
2021/12/16 10:02:36;;;;;;;12.95;9.77;;;6.00;74.30;;;;;;5060076;28;20036;-59
2021/12/16 10:05:05;;;;;;;11.15;7.78;;;6.00;74.40;;;;;;5063730;28;20035;-59
2021/12/16 10:07:33;;;;;;;14.30;8.25;;;6.00;74.40;;;;;;5062023;28;20473;-60
2021/12/16 10:10:03;;;;;;;10.43;7.57;;;5.90;74.40;;;;;;5067734;28;20035;-57
2021/12/16 10:12:34;;;;;;;10.40;7.88;;;5.90;74.50;;;;;;5064777;28;20032;-59
2021/12/16 10:17:22;;;;;;;11.93;9.30;;;5.90;74.60;;;;;;5063553;28;20036;-59
2021/12/16 10:17:52;;;;;;;16.80;11.35;;;5.80;74.60;;;;;;5059413;28;20055;-58
2021/12/16 10:20:28;;;;;;;13.32;9.77;;;5.90;74.90;;;;;;5067419;28;20455;-59
2021/12/16 10:23:09;;;;;;;14.00;9.82;;;5.80;75.00;;;;;;5066966;28;20032;-59
2021/12/16 10:25:42;;;;;;;12.65;9.40;;;5.90;75.00;;;;;;5066998;28;20500;-60
2021/12/16 10:28:23;;;;;;;13.20;8.43;;;5.90;75.50;;;;;;5062007;28;20105;-59
2021/12/16 10:30:55;;;;;;;12.97;9.03;;;5.90;74.90;;;;;;5063759;28;21117;-59
2021/12/16 10:33:41;;;;;;;12.57;10.00;;;5.90;74.90;;;;;;5059538;28;20281;-59
2021/12/16 10:36:10;;;;;;;16.38;10.57;;;6.00;75.00;;;;;;5055925;28;20085;-61
2021/12/16 10:38:53;;;;;;;16.48;11.15;;;6.00;75.10;;;;;;5057639;28;20028;-59
2021/12/16 10:41:36;;;;;;;16.25;10.75;;;6.00;75.10;;;;;;5063343;28;20031;-60
2021/12/16 10:44:13;;;;;;;12.82;9.60;;;6.00;75.20;;;;;;5058213;28;20213;-60
2021/12/16 10:46:46;;;;;;;12.27;8.18;;;6.10;74.80;;;;;;5064345;28;20020;-58
2021/12/16 10:49:21;;;;;;;15.45;9.48;;;6.10;74.80;;;;;;5067002;28;20075;-59
2021/12/16 10:51:54;;;;;;;14.15;10.48;;;6.20;74.50;;;;;;5071514;28;20035;-59
2021/12/16 10:54:27;;;;;;;14.25;10.13;;;6.20;74.70;;;;;;5070090;28;20371;-58
2021/12/16 10:56:57;;;;;;;16.77;10.80;;;6.20;74.60;;;;;;5064374;28;20031;-57
2021/12/16 10:59:26;;;;;;;15.40;11.02;;;6.20;74.60;;;;;;5061360;28;20122;-57
2021/12/16 11:01:54;;;;;;;14.85;10.63;;;6.30;74.60;;;;;;5059477;28;20032;-56
2021/12/16 11:04:37;;;;;;;12.20;8.98;;;6.40;74.50;;;;;;5060375;28;20028;-58
2021/12/16 11:07:22;;;;;;;17.60;11.38;;;6.50;74.30;;;;;;5060398;28;20173;-58
2021/12/16 11:10:06;;;;;;;16.40;11.10;;;6.50;74.10;;;;;;5055692;28;20034;-58
2021/12/16 11:12:39;;;;;;;17.80;11.55;;;6.60;73.90;;;;;;5062043;28;20371;-59
2021/12/16 11:15:20;;;;;;;16.42;11.52;;;6.60;73.70;;;;;;5067374;28;20039;-58
2021/12/16 11:17:50;;;;;;;17.65;11.57;;;6.70;73.60;;;;;;5064537;28;20525;-57
2021/12/16 11:20:42;;;;;;;14.18;10.95;;;6.70;73.60;;;;;;5064884;28;20043;-57
2021/12/16 11:23:32;;;;;;;11.25;9.23;;;6.80;73.30;;;;;;5065636;28;20085;-58
2021/12/16 11:26:07;;;;;;;16.08;11.45;;;6.80;73.20;;;;;;5060775;28;20114;-58
2021/12/16 11:28:41;;;;;;;19.75;12.02;;;6.80;73.20;;;;;;5061834;28;20034;-58
2021/12/16 11:31:19;;;;;;;17.33;11.75;;;6.80;73.20;;;;;;5065586;28;20036;-59
2021/12/16 11:33:54;;;;;;;17.83;12.68;;;6.80;73.20;;;;;;5070170;28;20020;-58
2021/12/16 11:36:21;;;;;;;17.50;12.00;;;6.80;73.30;;;;;;5064424;28;20035;-58
2021/12/16 11:38:48;;;;;;;19.90;11.90;;;6.80;73.20;;;;;;5068353;28;20532;-58
2021/12/16 11:41:25;;;;;;;17.38;11.13;;;6.90;73.00;;;;;;5068875;28;20180;-58
2021/12/16 11:43:56;;;;;;;15.18;11.05;;;6.90;72.90;;;;;;5064357;28;20031;-58
2021/12/16 11:46:44;;;;;;;14.30;10.55;;;6.90;72.90;;;;;;5061739;28;20977;-58
2021/12/16 11:49:41;;;;;;;15.60;10.43;;;7.00;72.80;;;;;;5064710;28;20028;-58
2021/12/16 11:52:14;;;;;;;18.25;11.57;;;7.00;72.50;;;;;;5063530;28;20044;-58
2021/12/16 11:54:42;;;;;;;17.15;11.85;;;7.00;72.70;;;;;;5065061;28;20043;-57
2021/12/16 11:57:07;;;;;;;18.30;12.45;;;7.00;72.70;;;;;;5067982;28;20024;-58
2021/12/16 11:59:38;;;;;;;15.63;10.98;;;7.00;72.50;;;;;;5073994;28;20024;-57
2021/12/16 12:02:06;;;;;;;14.50;11.45;;;7.10;72.60;;;;;;5071797;28;20032;-58
2021/12/16 12:04:36;;;;;;;18.58;11.10;;;7.00;72.30;;;;;;5069925;28;20061;-59
2021/12/16 12:07:14;;;;;;;17.75;10.68;;;7.10;72.50;;;;;;5067190;28;20028;-59
2021/12/16 12:09:50;;;;;;;16.48;11.13;;;7.10;72.20;;;;;;5068383;28;20567;-58
2021/12/16 12:12:16;;;;;;;17.88;11.48;;;7.00;72.30;;;;;;5066242;28;20024;-57
2021/12/16 12:14:44;;;;;;;17.00;11.02;;;7.00;72.10;;;;;;5060575;28;20700;-58
2021/12/16 12:17:21;;;;;;;15.50;11.23;;;7.00;72.10;;;;;;5073723;28;20028;-58
2021/12/16 12:19:50;;;;;;;13.30;10.30;;;7.00;72.10;;;;;;5062979;28;20118;-58
2021/12/16 12:22:21;;;;;;;16.85;11.63;;;7.00;72.20;;;;;;5067035;28;21743;-58
2021/12/16 12:24:47;;;;;;;15.48;11.10;;;7.00;72.20;;;;;;5064696;28;20032;-58
2021/12/16 12:27:15;;;;;;;15.48;10.73;;;7.00;72.10;;;;;;5068241;28;20016;-58
2021/12/16 12:29:43;;;;;;;15.20;10.93;;;7.00;72.00;;;;;;5064416;28;20064;-58
2021/12/16 12:32:08;;;;;;;16.35;11.27;;;7.00;72.00;;;;;;5066589;28;20506;-59
2021/12/16 12:34:38;;;;;;;13.98;9.82;;;7.00;71.90;;;;;;5061939;28;20092;-59
2021/12/16 12:37:07;;;;;;;16.48;10.52;;;6.90;71.80;;;;;;5064545;28;20086;-58
2021/12/16 12:39:38;;;;;;;15.68;10.55;;;6.90;71.90;;;;;;5069813;28;20028;-59
2021/12/16 12:42:06;;;;;;;16.63;11.63;;;6.80;72.10;;;;;;5069867;28;20653;-59
2021/12/16 12:44:32;;;;;;;14.63;9.38;;;6.80;72.10;;;;;;5065266;28;20028;-59
2021/12/16 12:47:05;;;;;;;15.80;11.18;;;6.70;72.20;;;;;;5070182;28;20028;-58
2021/12/16 12:49:31;;;;;;;18.85;11.45;;;6.70;72.30;;;;;;5071327;28;20024;-58
2021/12/16 12:52:23;;;;;;;16.38;10.82;;;6.70;72.50;;;;;;5072025;28;20064;-57
2021/12/16 12:55:20;;;;;;;15.40;11.05;;;6.60;72.50;;;;;;5067936;28;20056;-58
2021/12/16 12:57:47;;;;;;;16.00;11.50;;;6.70;72.70;;;;;;5061177;28;20047;-57
2021/12/16 13:00:34;;;;;;;13.88;10.68;;;6.60;72.80;;;;;;5065882;28;20429;-57
2021/12/16 13:03:14;;;;;;;16.63;10.65;;;6.70;72.80;;;;;;5070208;28;20114;-59
2021/12/16 13:05:40;;;;;;;14.40;10.50;;;6.70;73.00;;;;;;5064550;28;20068;-58
2021/12/16 13:08:08;;;;;;;12.98;10.07;;;6.70;72.80;;;;;;5066206;28;20040;-58
2021/12/16 13:10:47;;;;;;;13.30;9.43;;;6.70;72.80;;;;;;5064206;28;20056;-59
2021/12/16 13:16:36;;;;;;;16.55;11.57;;;6.80;72.70;;;;;;5066048;28;20047;-59
2021/12/16 13:27:06;;;;;;;14.50;10.57;;;6.80;72.60;;;;;;5065581;28;20515;-60
2021/12/16 13:29:36;;;;;;;15.77;11.68;;;6.80;72.60;;;;;;5062791;28;20141;-60
2021/12/16 13:32:17;;;;;;;15.68;10.95;;;6.80;72.70;;;;;;5062805;28;20028;-61
2021/12/16 13:35:05;;;;;;;17.10;12.07;;;6.80;72.80;;;;;;5062672;28;20024;-60
2021/12/16 13:37:41;;;;;;;15.15;11.82;;;6.70;72.80;;;;;;5064875;28;20044;-60
2021/12/16 13:40:23;;;;;;;18.20;11.65;;;6.70;72.90;;;;;;5065399;28;20480;-59
2021/12/16 13:42:54;;;;;;;18.35;12.20;;;6.70;73.00;;;;;;5070825;28;20032;-60
2021/12/16 13:45:31;;;;;;;17.35;12.07;;;6.70;73.30;;;;;;5067153;28;20081;-59
2021/12/16 14:02:02;;;;;;;16.15;12.07;;;6.70;73.30;;;;;;5062231;28;20031;-57
2021/12/16 14:04:58;;;;;;;18.15;12.85;;;6.70;73.00;;;;;;5060622;28;20028;-57
2021/12/16 14:07:51;;;;;;;19.35;12.57;;;6.60;73.20;;;;;;5057541;28;20052;-58
2021/12/16 14:10:20;;;;;;;16.88;11.40;;;6.60;73.30;;;;;;5060256;28;20032;-59
2021/12/16 14:16:38;;;;;;;15.95;12.20;;;6.60;73.40;;;;;;5062935;28;20043;-59
2021/12/16 14:25:20;;;;;;;21.25;13.50;;;6.50;73.80;;;;;;5073621;28;20046;-57
2021/12/16 14:41:42;;;;;;;20.63;13.00;;;6.60;73.90;;;;;;5065097;28;20710;-56
2021/12/16 14:46:58;;;;;;;18.83;13.25;;;6.50;73.90;;;;;;5065787;28;20070;-57
2021/12/16 14:49:37;;;;;;;18.70;13.50;;;6.50;74.10;;;;;;5064389;28;20032;-56
2021/12/16 14:52:04;;;;;;;22.42;13.63;;;6.50;74.10;;;;;;5063526;28;20036;-55
2021/12/16 14:54:34;;;;;;;19.70;13.77;;;6.50;74.40;;;;;;5064979;28;20021;-59
2021/12/16 14:57:02;;;;;;;21.83;14.20;;;6.50;74.40;;;;;;5057661;28;20213;-59
2021/12/16 14:59:30;;;;;;;17.95;12.50;;;6.50;74.60;;;;;;5069299;28;20039;-57
2021/12/16 15:02:00;;;;;;;23.60;14.82;;;6.50;74.70;;;;;;5064201;28;20037;-57
2021/12/16 15:04:29;;;;;;;18.88;13.45;;;6.50;74.70;;;;;;5069505;28;20051;-57
2021/12/16 15:07:02;;;;;;;17.73;12.65;;;6.50;74.90;;;;;;5069199;28;20036;-58
2021/12/16 15:09:29;;;;;;;18.05;12.13;;;6.50;74.90;;;;;;5069334;28;20977;-58
2021/12/16 15:12:20;;;;;;;17.30;12.60;;;6.50;74.90;;;;;;5065848;28;20039;-56
2021/12/16 15:42:54;;;;;;;20.67;15.02;;;6.50;75.80;;;;;;5069951;28;20043;-58
2021/12/16 15:45:44;;;;;;;19.35;13.57;;;6.60;75.70;;;;;;5069648;28;20041;-58
2021/12/16 15:48:14;;;;;;;22.60;14.27;;;6.60;75.50;;;;;;5068183;28;20044;-58
2021/12/16 15:50:46;;;;;;;24.30;16.17;;;6.60;75.50;;;;;;5062156;28;20791;-59
2021/12/16 15:53:37;;;;;;;23.23;16.00;;;6.60;75.50;;;;;;5070952;28;20754;-57
2021/12/16 15:56:10;;;;;;;24.80;16.13;;;6.70;75.50;;;;;;5066596;28;20040;-59
2021/12/16 15:58:49;;;;;;;24.50;15.88;;;6.70;75.70;;;;;;5065994;28;21404;-58
2021/12/16 16:01:29;;;;;;;20.80;14.25;;;6.70;75.70;;;;;;5066271;28;20055;-57
2021/12/16 16:03:57;;;;;;;22.50;15.77;;;6.70;75.60;;;;;;5072655;28;20027;-57
2021/12/16 16:06:26;;;;;;;25.38;16.17;;;6.80;75.70;;;;;;5073652;28;20031;-57
2021/12/16 16:08:56;;;;;;;24.85;16.67;;;6.80;75.50;;;;;;5066736;28;20028;-57
2021/12/16 16:11:26;;;;;;;23.23;15.85;;;6.90;75.50;;;;;;5072256;28;20028;-57
2021/12/16 16:13:57;;;;;;;24.00;15.57;;;6.90;75.40;;;;;;5070398;28;20138;-57
2021/12/16 16:16:31;;;;;;;21.98;15.32;;;6.90;75.40;;;;;;5072083;28;20024;-55
2021/12/16 16:19:00;;;;;;;23.38;16.17;;;6.90;75.30;;;;;;5076400;28;20852;-55
2021/12/16 16:21:34;;;;;;;22.90;16.23;;;6.90;75.40;;;;;;5074745;28;20050;-58
2021/12/16 16:24:16;;;;;;;24.00;15.85;;;6.90;75.50;;;;;;5073206;28;20397;-58
2021/12/16 16:26:44;;;;;;;23.23;15.52;;;6.90;75.40;;;;;;5076927;28;20567;-58
2021/12/16 16:29:16;;;;;;;23.38;15.25;;;7.00;75.40;;;;;;5073277;28;20407;-58
2021/12/16 16:31:42;;;;;;;24.17;15.70;;;7.00;75.30;;;;;;5068881;28;20673;-57
2021/12/16 16:34:18;;;;;;;24.83;16.13;;;7.00;75.30;;;;;;5077543;28;20032;-57
2021/12/16 16:36:48;;;;;;;22.85;17.40;;;7.00;75.60;;;;;;5071441;28;20040;-58
2021/12/16 16:39:18;;;;;;;22.63;15.93;;;6.90;75.60;;;;;;5074362;28;20114;-56
2021/12/16 16:41:47;;;;;;;20.92;15.60;;;6.90;75.80;;;;;;5083523;28;20040;-57
2021/12/16 16:44:16;;;;;;;24.45;17.00;;;6.90;75.90;;;;;;5080106;28;20036;-58
2021/12/16 16:46:55;;;;;;;24.38;16.63;;;6.90;76.10;;;;;;5077468;28;20028;-58
2021/12/16 16:49:42;;;;;;;22.80;16.58;;;6.90;76.20;;;;;;5074080;28;20032;-58
2021/12/16 16:52:12;;;;;;;26.38;17.60;;;6.90;76.40;;;;;;5088413;28;20468;-55
2021/12/16 16:54:48;;;;;;;28.27;17.97;;;6.90;76.60;;;;;;5075118;28;20052;-58